sensor_id;sensor_type;location;lat;lon;timestamp;temperature;humidity
14053;DHT22;7101;51.600;7.310;2023-03-05T00:02:16;4.90;99.90
14053;DHT22;7101;51.600;7.310;2023-03-05T00:04:43;4.80;99.90
14053;DHT22;7101;51.600;7.310;2023-03-05T00:07:10;4.70;99.90
14053;DHT22;7101;51.600;7.310;2023-03-05T00:09:40;4.70;99.90
14053;DHT22;7101;51.600;7.310;2023-03-05T00:12:08;4.70;99.90
14053;DHT22;7101;51.600;7.310;2023-03-05T00:14:35;4.60;99.90
14053;DHT22;7101;51.600;7.310;2023-03-05T00:17:02;4.60;99.90
14053;DHT22;7101;51.600;7.310;2023-03-05T00:19:29;4.60;99.90
14053;DHT22;7101;51.600;7.310;2023-03-05T00:21:57;4.70;99.90
14053;DHT22;7101;51.600;7.310;2023-03-05T00:24:25;4.70;99.90
14053;DHT22;7101;51.600;7.310;2023-03-05T00:26:53;4.50;99.90
14053;DHT22;7101;51.600;7.310;2023-03-05T00:29:20;4.40;99.90
14053;DHT22;7101;51.600;7.310;2023-03-05T00:31:47;4.30;99.90
14053;DHT22;7101;51.600;7.310;2023-03-05T00:34:16;4.10;99.90
14053;DHT22;7101;51.600;7.310;2023-03-05T00:36:45;4.10;99.90
14053;DHT22;7101;51.600;7.310;2023-03-05T00:39:14;4.00;99.90
14053;DHT22;7101;51.600;7.310;2023-03-05T00:41:43;3.90;99.90
14053;DHT22;7101;51.600;7.310;2023-03-05T00:44:11;3.80;99.90
14053;DHT22;7101;51.600;7.310;2023-03-05T00:46:39;3.80;99.90
14053;DHT22;7101;51.600;7.310;2023-03-05T00:49:06;3.80;99.90
14053;DHT22;7101;51.600;7.310;2023-03-05T00:51:33;3.90;99.90
14053;DHT22;7101;51.600;7.310;2023-03-05T00:54:01;3.80;99.90
14053;DHT22;7101;51.600;7.310;2023-03-05T00:56:28;3.80;99.90
14053;DHT22;7101;51.600;7.310;2023-03-05T00:58:55;3.90;99.90
14053;DHT22;7101;51.600;7.310;2023-03-05T01:01:24;3.80;99.90
14053;DHT22;7101;51.600;7.310;2023-03-05T01:03:51;3.90;99.90
14053;DHT22;7101;51.600;7.310;2023-03-05T01:06:20;3.80;99.90
14053;DHT22;7101;51.600;7.310;2023-03-05T01:08:47;3.80;99.90
14053;DHT22;7101;51.600;7.310;2023-03-05T01:11:14;3.80;99.90
14053;DHT22;7101;51.600;7.310;2023-03-05T01:13:42;3.80;99.90
14053;DHT22;7101;51.600;7.310;2023-03-05T01:16:10;3.80;99.90
14053;DHT22;7101;51.600;7.310;2023-03-05T01:18:41;3.80;99.90
14053;DHT22;7101;51.600;7.310;2023-03-05T01:21:08;3.80;99.90
14053;DHT22;7101;51.600;7.310;2023-03-05T01:23:36;3.90;99.90
14053;DHT22;7101;51.600;7.310;2023-03-05T01:26:04;3.80;99.90
14053;DHT22;7101;51.600;7.310;2023-03-05T01:28:31;3.80;99.90
14053;DHT22;7101;51.600;7.310;2023-03-05T01:30:58;3.80;99.90
14053;DHT22;7101;51.600;7.310;2023-03-05T01:33:26;3.80;99.90
14053;DHT22;7101;51.600;7.310;2023-03-05T01:35:55;3.90;99.90
14053;DHT22;7101;51.600;7.310;2023-03-05T01:38:22;3.80;99.90
14053;DHT22;7101;51.600;7.310;2023-03-05T01:40:48;3.80;99.90
14053;DHT22;7101;51.600;7.310;2023-03-05T01:43:23;3.90;99.90
14053;DHT22;7101;51.600;7.310;2023-03-05T01:49:11;3.80;99.90
14053;DHT22;7101;51.600;7.310;2023-03-05T01:51:49;3.70;99.90
14053;DHT22;7101;51.600;7.310;2023-03-05T01:54:19;3.70;99.90
14053;DHT22;7101;51.600;7.310;2023-03-05T01:56:48;3.70;99.90
14053;DHT22;7101;51.600;7.310;2023-03-05T01:59:16;3.70;99.90
14053;DHT22;7101;51.600;7.310;2023-03-05T02:01:47;3.70;99.90
14053;DHT22;7101;51.600;7.310;2023-03-05T02:04:17;3.70;99.90
14053;DHT22;7101;51.600;7.310;2023-03-05T02:06:46;3.70;99.90
14053;DHT22;7101;51.600;7.310;2023-03-05T02:09:14;3.70;99.90
14053;DHT22;7101;51.600;7.310;2023-03-05T02:11:42;3.70;99.90
14053;DHT22;7101;51.600;7.310;2023-03-05T02:14:09;3.70;99.90
14053;DHT22;7101;51.600;7.310;2023-03-05T02:16:37;3.70;99.90
14053;DHT22;7101;51.600;7.310;2023-03-05T02:19:08;3.60;99.90
14053;DHT22;7101;51.600;7.310;2023-03-05T02:21:38;3.70;99.90
14053;DHT22;7101;51.600;7.310;2023-03-05T02:24:06;3.70;99.90
14053;DHT22;7101;51.600;7.310;2023-03-05T02:26:33;3.70;99.90
14053;DHT22;7101;51.600;7.310;2023-03-05T02:29:00;3.60;99.90
14053;DHT22;7101;51.600;7.310;2023-03-05T02:31:29;3.60;99.90
14053;DHT22;7101;51.600;7.310;2023-03-05T02:33:56;3.70;99.90
14053;DHT22;7101;51.600;7.310;2023-03-05T02:36:25;3.60;99.90
14053;DHT22;7101;51.600;7.310;2023-03-05T02:38:57;3.60;99.90
14053;DHT22;7101;51.600;7.310;2023-03-05T02:41:25;3.60;99.90
14053;DHT22;7101;51.600;7.310;2023-03-05T02:43:52;3.70;99.90
14053;DHT22;7101;51.600;7.310;2023-03-05T02:46:19;3.70;99.90
14053;DHT22;7101;51.600;7.310;2023-03-05T02:48:45;3.70;99.90
14053;DHT22;7101;51.600;7.310;2023-03-05T02:51:12;3.70;99.90
14053;DHT22;7101;51.600;7.310;2023-03-05T02:53:39;3.70;99.90
14053;DHT22;7101;51.600;7.310;2023-03-05T02:56:07;3.60;99.90
14053;DHT22;7101;51.600;7.310;2023-03-05T02:58:36;3.60;99.90
14053;DHT22;7101;51.600;7.310;2023-03-05T03:01:04;3.60;99.90
14053;DHT22;7101;51.600;7.310;2023-03-05T03:03:31;3.60;99.90
14053;DHT22;7101;51.600;7.310;2023-03-05T03:05:58;3.60;99.90
14053;DHT22;7101;51.600;7.310;2023-03-05T03:08:25;3.70;99.90
14053;DHT22;7101;51.600;7.310;2023-03-05T03:10:51;3.70;99.90
14053;DHT22;7101;51.600;7.310;2023-03-05T03:13:22;3.60;99.90
14053;DHT22;7101;51.600;7.310;2023-03-05T03:15:49;3.60;99.90
14053;DHT22;7101;51.600;7.310;2023-03-05T03:18:16;3.60;99.90
14053;DHT22;7101;51.600;7.310;2023-03-05T03:20:45;3.60;99.90
14053;DHT22;7101;51.600;7.310;2023-03-05T03:23:12;3.70;99.90
14053;DHT22;7101;51.600;7.310;2023-03-05T03:25:39;3.60;99.90
14053;DHT22;7101;51.600;7.310;2023-03-05T03:28:07;3.70;99.90
14053;DHT22;7101;51.600;7.310;2023-03-05T03:30:35;3.60;99.90
14053;DHT22;7101;51.600;7.310;2023-03-05T03:33:02;3.60;99.90
14053;DHT22;7101;51.600;7.310;2023-03-05T03:35:29;3.70;99.90
14053;DHT22;7101;51.600;7.310;2023-03-05T03:37:56;3.70;99.90
14053;DHT22;7101;51.600;7.310;2023-03-05T03:40:23;3.70;99.90
14053;DHT22;7101;51.600;7.310;2023-03-05T03:42:50;3.80;99.90
14053;DHT22;7101;51.600;7.310;2023-03-05T03:45:18;3.70;99.90
14053;DHT22;7101;51.600;7.310;2023-03-05T03:47:48;3.70;99.90
14053;DHT22;7101;51.600;7.310;2023-03-05T03:50:16;3.70;99.90
14053;DHT22;7101;51.600;7.310;2023-03-05T03:52:43;3.70;99.90
14053;DHT22;7101;51.600;7.310;2023-03-05T03:55:10;3.80;99.90
14053;DHT22;7101;51.600;7.310;2023-03-05T03:57:37;3.70;99.90
14053;DHT22;7101;51.600;7.310;2023-03-05T04:00:06;3.70;99.90
14053;DHT22;7101;51.600;7.310;2023-03-05T04:02:35;3.70;99.90
14053;DHT22;7101;51.600;7.310;2023-03-05T04:05:05;3.70;99.90
14053;DHT22;7101;51.600;7.310;2023-03-05T04:07:33;3.60;99.90
14053;DHT22;7101;51.600;7.310;2023-03-05T04:10:00;3.60;99.90
14053;DHT22;7101;51.600;7.310;2023-03-05T04:12:27;3.60;99.90
14053;DHT22;7101;51.600;7.310;2023-03-05T04:14:54;3.50;99.90
14053;DHT22;7101;51.600;7.310;2023-03-05T04:17:21;3.60;99.90
14053;DHT22;7101;51.600;7.310;2023-03-05T04:19:47;3.50;99.90
14053;DHT22;7101;51.600;7.310;2023-03-05T04:22:17;3.40;99.90
14053;DHT22;7101;51.600;7.310;2023-03-05T04:24:43;3.40;99.90
14053;DHT22;7101;51.600;7.310;2023-03-05T04:27:10;3.40;99.90
14053;DHT22;7101;51.600;7.310;2023-03-05T04:29:37;3.40;99.90
14053;DHT22;7101;51.600;7.310;2023-03-05T04:32:04;3.40;99.90
14053;DHT22;7101;51.600;7.310;2023-03-05T04:34:31;3.40;99.90
14053;DHT22;7101;51.600;7.310;2023-03-05T04:36:58;3.40;99.90
14053;DHT22;7101;51.600;7.310;2023-03-05T04:39:28;3.50;99.90
14053;DHT22;7101;51.600;7.310;2023-03-05T04:41:54;3.40;99.90
14053;DHT22;7101;51.600;7.310;2023-03-05T04:44:22;3.50;99.90
14053;DHT22;7101;51.600;7.310;2023-03-05T04:46:50;3.50;99.90
14053;DHT22;7101;51.600;7.310;2023-03-05T04:49:17;3.60;99.90
14053;DHT22;7101;51.600;7.310;2023-03-05T04:51:44;3.60;99.90
14053;DHT22;7101;51.600;7.310;2023-03-05T04:54:12;3.60;99.90
14053;DHT22;7101;51.600;7.310;2023-03-05T04:56:41;3.60;99.90
14053;DHT22;7101;51.600;7.310;2023-03-05T04:59:09;3.60;99.90
14053;DHT22;7101;51.600;7.310;2023-03-05T05:01:36;3.50;99.90
14053;DHT22;7101;51.600;7.310;2023-03-05T05:04:03;3.40;99.90
14053;DHT22;7101;51.600;7.310;2023-03-05T05:06:30;3.40;99.90
14053;DHT22;7101;51.600;7.310;2023-03-05T05:08:57;3.40;99.90
14053;DHT22;7101;51.600;7.310;2023-03-05T05:11:24;3.40;99.90
14053;DHT22;7101;51.600;7.310;2023-03-05T05:13:52;3.40;99.90
14053;DHT22;7101;51.600;7.310;2023-03-05T05:16:19;3.40;99.90
14053;DHT22;7101;51.600;7.310;2023-03-05T05:18:46;3.40;99.90
14053;DHT22;7101;51.600;7.310;2023-03-05T05:21:13;3.40;99.90
14053;DHT22;7101;51.600;7.310;2023-03-05T05:23:40;3.40;99.90
14053;DHT22;7101;51.600;7.310;2023-03-05T05:26:07;3.40;99.90
14053;DHT22;7101;51.600;7.310;2023-03-05T05:28:34;3.40;99.90
14053;DHT22;7101;51.600;7.310;2023-03-05T05:31:07;3.40;99.90
14053;DHT22;7101;51.600;7.310;2023-03-05T05:33:35;3.30;99.90
14053;DHT22;7101;51.600;7.310;2023-03-05T05:36:02;3.30;99.90
14053;DHT22;7101;51.600;7.310;2023-03-05T05:38:30;3.30;99.90
14053;DHT22;7101;51.600;7.310;2023-03-05T05:41:01;3.20;99.90
14053;DHT22;7101;51.600;7.310;2023-03-05T05:43:29;3.20;99.90
14053;DHT22;7101;51.600;7.310;2023-03-05T05:45:58;3.10;99.90
14053;DHT22;7101;51.600;7.310;2023-03-05T05:48:27;3.10;99.90
14053;DHT22;7101;51.600;7.310;2023-03-05T05:50:54;3.10;99.90
14053;DHT22;7101;51.600;7.310;2023-03-05T05:53:21;3.10;99.90
14053;DHT22;7101;51.600;7.310;2023-03-05T05:55:48;3.10;99.90
14053;DHT22;7101;51.600;7.310;2023-03-05T05:58:15;3.10;99.90
14053;DHT22;7101;51.600;7.310;2023-03-05T06:00:43;3.10;99.90
14053;DHT22;7101;51.600;7.310;2023-03-05T06:03:10;3.10;99.90
14053;DHT22;7101;51.600;7.310;2023-03-05T06:05:40;3.20;99.90
14053;DHT22;7101;51.600;7.310;2023-03-05T06:08:07;3.10;99.90
14053;DHT22;7101;51.600;7.310;2023-03-05T06:10:35;3.10;99.90
14053;DHT22;7101;51.600;7.310;2023-03-05T06:13:01;3.20;99.90
14053;DHT22;7101;51.600;7.310;2023-03-05T06:15:28;3.20;99.90
14053;DHT22;7101;51.600;7.310;2023-03-05T06:17:57;3.20;99.90
14053;DHT22;7101;51.600;7.310;2023-03-05T06:20:24;3.20;99.90
14053;DHT22;7101;51.600;7.310;2023-03-05T06:22:53;3.30;99.90
14053;DHT22;7101;51.600;7.310;2023-03-05T06:25:20;3.30;99.90
14053;DHT22;7101;51.600;7.310;2023-03-05T06:27:47;3.30;99.90
14053;DHT22;7101;51.600;7.310;2023-03-05T06:30:14;3.30;99.90
14053;DHT22;7101;51.600;7.310;2023-03-05T06:32:42;3.30;99.90
14053;DHT22;7101;51.600;7.310;2023-03-05T06:35:09;3.20;99.90
14053;DHT22;7101;51.600;7.310;2023-03-05T06:37:36;3.10;99.90
14053;DHT22;7101;51.600;7.310;2023-03-05T06:40:07;3.10;99.90
14053;DHT22;7101;51.600;7.310;2023-03-05T06:42:34;3.10;99.90
14053;DHT22;7101;51.600;7.310;2023-03-05T06:45:01;3.20;99.90
14053;DHT22;7101;51.600;7.310;2023-03-05T06:47:29;3.30;99.90
14053;DHT22;7101;51.600;7.310;2023-03-05T06:49:57;3.30;99.90
14053;DHT22;7101;51.600;7.310;2023-03-05T06:52:24;3.30;99.90
14053;DHT22;7101;51.600;7.310;2023-03-05T06:54:51;3.40;99.90
14053;DHT22;7101;51.600;7.310;2023-03-05T06:57:23;3.50;99.90
14053;DHT22;7101;51.600;7.310;2023-03-05T06:59:52;3.50;99.90
14053;DHT22;7101;51.600;7.310;2023-03-05T07:02:19;3.50;99.90
14053;DHT22;7101;51.600;7.310;2023-03-05T07:04:46;3.50;99.90
14053;DHT22;7101;51.600;7.310;2023-03-05T07:07:13;3.40;99.90
14053;DHT22;7101;51.600;7.310;2023-03-05T07:09:39;3.50;99.90
14053;DHT22;7101;51.600;7.310;2023-03-05T07:12:08;3.60;99.90
14053;DHT22;7101;51.600;7.310;2023-03-05T07:14:38;3.60;99.90
14053;DHT22;7101;51.600;7.310;2023-03-05T07:17:05;3.50;99.90
14053;DHT22;7101;51.600;7.310;2023-03-05T07:19:34;3.50;99.90
14053;DHT22;7101;51.600;7.310;2023-03-05T07:22:01;3.60;99.90
14053;DHT22;7101;51.600;7.310;2023-03-05T07:24:28;3.60;99.90
14053;DHT22;7101;51.600;7.310;2023-03-05T07:26:55;3.70;99.90
14053;DHT22;7101;51.600;7.310;2023-03-05T07:29:23;3.90;99.90
14053;DHT22;7101;51.600;7.310;2023-03-05T07:31:51;3.90;99.90
14053;DHT22;7101;51.600;7.310;2023-03-05T07:34:18;4.00;99.90
14053;DHT22;7101;51.600;7.310;2023-03-05T07:36:49;4.10;99.90
14053;DHT22;7101;51.600;7.310;2023-03-05T07:39:16;4.30;99.90
14053;DHT22;7101;51.600;7.310;2023-03-05T07:41:43;4.30;99.90
14053;DHT22;7101;51.600;7.310;2023-03-05T07:44:13;4.40;99.90
14053;DHT22;7101;51.600;7.310;2023-03-05T07:46:40;4.40;99.90
14053;DHT22;7101;51.600;7.310;2023-03-05T07:49:09;4.40;99.90
14053;DHT22;7101;51.600;7.310;2023-03-05T07:51:36;4.40;99.90
14053;DHT22;7101;51.600;7.310;2023-03-05T07:54:04;4.40;99.90
14053;DHT22;7101;51.600;7.310;2023-03-05T07:56:33;4.50;99.90
14053;DHT22;7101;51.600;7.310;2023-03-05T07:59:04;4.40;99.90
14053;DHT22;7101;51.600;7.310;2023-03-05T08:01:31;4.60;99.90
14053;DHT22;7101;51.600;7.310;2023-03-05T08:03:58;4.60;99.90
14053;DHT22;7101;51.600;7.310;2023-03-05T08:06:27;4.80;99.90
14053;DHT22;7101;51.600;7.310;2023-03-05T08:08:56;4.80;99.90
14053;DHT22;7101;51.600;7.310;2023-03-05T08:11:24;4.80;99.90
14053;DHT22;7101;51.600;7.310;2023-03-05T08:13:53;4.70;99.90
14053;DHT22;7101;51.600;7.310;2023-03-05T08:16:20;4.70;99.90
14053;DHT22;7101;51.600;7.310;2023-03-05T08:18:53;4.70;99.90
14053;DHT22;7101;51.600;7.310;2023-03-05T08:21:25;4.80;99.90
14053;DHT22;7101;51.600;7.310;2023-03-05T08:23:56;4.80;99.90
14053;DHT22;7101;51.600;7.310;2023-03-05T08:26:26;4.90;99.90
14053;DHT22;7101;51.600;7.310;2023-03-05T08:28:54;5.00;99.90
14053;DHT22;7101;51.600;7.310;2023-03-05T08:31:23;5.20;99.90
14053;DHT22;7101;51.600;7.310;2023-03-05T08:33:51;5.20;99.90
14053;DHT22;7101;51.600;7.310;2023-03-05T08:36:18;5.50;99.90
14053;DHT22;7101;51.600;7.310;2023-03-05T08:38:46;5.50;99.90
14053;DHT22;7101;51.600;7.310;2023-03-05T08:41:15;5.30;99.90
14053;DHT22;7101;51.600;7.310;2023-03-05T08:43:43;5.30;99.90
14053;DHT22;7101;51.600;7.310;2023-03-05T08:46:12;5.50;99.90
14053;DHT22;7101;51.600;7.310;2023-03-05T08:48:41;5.50;99.90
14053;DHT22;7101;51.600;7.310;2023-03-05T08:51:09;5.50;99.90
14053;DHT22;7101;51.600;7.310;2023-03-05T08:53:38;5.50;99.90
14053;DHT22;7101;51.600;7.310;2023-03-05T08:56:06;5.60;99.90
14053;DHT22;7101;51.600;7.310;2023-03-05T08:58:34;5.40;99.90
14053;DHT22;7101;51.600;7.310;2023-03-05T09:01:01;5.50;99.90
14053;DHT22;7101;51.600;7.310;2023-03-05T09:03:28;5.50;99.90
14053;DHT22;7101;51.600;7.310;2023-03-05T09:05:58;5.50;99.90
14053;DHT22;7101;51.600;7.310;2023-03-05T09:08:26;5.60;99.90
14053;DHT22;7101;51.600;7.310;2023-03-05T09:10:53;5.50;99.90
14053;DHT22;7101;51.600;7.310;2023-03-05T09:13:21;5.30;99.90
14053;DHT22;7101;51.600;7.310;2023-03-05T09:15:55;5.50;99.90
14053;DHT22;7101;51.600;7.310;2023-03-05T09:18:22;5.50;99.90
14053;DHT22;7101;51.600;7.310;2023-03-05T09:20:49;5.40;99.90
14053;DHT22;7101;51.600;7.310;2023-03-05T09:23:18;5.20;99.90
14053;DHT22;7101;51.600;7.310;2023-03-05T09:25:47;4.80;99.90
14053;DHT22;7101;51.600;7.310;2023-03-05T09:28:16;4.40;99.90
14053;DHT22;7101;51.600;7.310;2023-03-05T09:30:43;4.30;99.90
14053;DHT22;7101;51.600;7.310;2023-03-05T09:33:12;4.30;99.90
14053;DHT22;7101;51.600;7.310;2023-03-05T09:35:40;4.00;99.90
14053;DHT22;7101;51.600;7.310;2023-03-05T09:38:07;3.70;99.90
14053;DHT22;7101;51.600;7.310;2023-03-05T09:40:43;3.70;99.90
14053;DHT22;7101;51.600;7.310;2023-03-05T09:43:17;3.70;99.90
14053;DHT22;7101;51.600;7.310;2023-03-05T09:45:58;3.70;99.90
14053;DHT22;7101;51.600;7.310;2023-03-05T09:48:44;3.80;99.90
14053;DHT22;7101;51.600;7.310;2023-03-05T09:51:20;4.00;99.90
14053;DHT22;7101;51.600;7.310;2023-03-05T09:53:52;4.30;99.90
14053;DHT22;7101;51.600;7.310;2023-03-05T09:56:23;4.70;99.90
14053;DHT22;7101;51.600;7.310;2023-03-05T09:58:53;5.30;99.90
14053;DHT22;7101;51.600;7.310;2023-03-05T10:01:30;5.60;99.90
14053;DHT22;7101;51.600;7.310;2023-03-05T10:04:08;6.00;99.90
14053;DHT22;7101;51.600;7.310;2023-03-05T10:06:49;5.90;99.90
14053;DHT22;7101;51.600;7.310;2023-03-05T10:09:27;5.90;99.90
14053;DHT22;7101;51.600;7.310;2023-03-05T10:12:01;5.90;99.90
14053;DHT22;7101;51.600;7.310;2023-03-05T10:14:31;5.70;99.90
14053;DHT22;7101;51.600;7.310;2023-03-05T10:17:36;5.60;99.90
14053;DHT22;7101;51.600;7.310;2023-03-05T10:23:20;5.50;99.90
14053;DHT22;7101;51.600;7.310;2023-03-05T10:25:57;5.10;99.90
14053;DHT22;7101;51.600;7.310;2023-03-05T10:28:33;4.80;99.90
14053;DHT22;7101;51.600;7.310;2023-03-05T10:31:11;4.70;99.90
14053;DHT22;7101;51.600;7.310;2023-03-05T10:33:46;4.80;99.90
14053;DHT22;7101;51.600;7.310;2023-03-05T10:39:46;5.30;99.90
14053;DHT22;7101;51.600;7.310;2023-03-05T10:42:24;5.70;99.90
14053;DHT22;7101;51.600;7.310;2023-03-05T10:44:55;5.90;99.90
14053;DHT22;7101;51.600;7.310;2023-03-05T10:47:27;6.20;99.90
14053;DHT22;7101;51.600;7.310;2023-03-05T10:49:57;6.20;99.90
14053;DHT22;7101;51.600;7.310;2023-03-05T10:52:29;6.10;99.90
14053;DHT22;7101;51.600;7.310;2023-03-05T10:54:59;6.10;99.90
14053;DHT22;7101;51.600;7.310;2023-03-05T10:57:26;6.30;99.90
14053;DHT22;7101;51.600;7.310;2023-03-05T10:59:57;6.20;99.90
14053;DHT22;7101;51.600;7.310;2023-03-05T11:02:27;6.30;99.90
14053;DHT22;7101;51.600;7.310;2023-03-05T11:04:54;6.30;99.90
14053;DHT22;7101;51.600;7.310;2023-03-05T11:07:37;6.20;99.90
14053;DHT22;7101;51.600;7.310;2023-03-05T11:10:15;6.10;99.90
14053;DHT22;7101;51.600;7.310;2023-03-05T11:12:43;6.20;99.90
14053;DHT22;7101;51.600;7.310;2023-03-05T11:15:23;6.50;99.90
14053;DHT22;7101;51.600;7.310;2023-03-05T11:18:19;6.60;99.90
14053;DHT22;7101;51.600;7.310;2023-03-05T11:20:49;6.70;99.90
14053;DHT22;7101;51.600;7.310;2023-03-05T11:23:17;6.80;99.90
14053;DHT22;7101;51.600;7.310;2023-03-05T11:25:59;6.90;99.90
14053;DHT22;7101;51.600;7.310;2023-03-05T11:28:30;7.20;99.90
14053;DHT22;7101;51.600;7.310;2023-03-05T11:31:01;7.30;99.90
14053;DHT22;7101;51.600;7.310;2023-03-05T11:33:30;7.50;99.90
14053;DHT22;7101;51.600;7.310;2023-03-05T11:36:15;7.50;99.90
14053;DHT22;7101;51.600;7.310;2023-03-05T11:38:50;7.40;99.90
14053;DHT22;7101;51.600;7.310;2023-03-05T11:41:31;7.30;99.90
14053;DHT22;7101;51.600;7.310;2023-03-05T11:44:00;7.30;99.90
14053;DHT22;7101;51.600;7.310;2023-03-05T11:46:39;7.30;99.90
14053;DHT22;7101;51.600;7.310;2023-03-05T11:49:10;7.30;99.90
14053;DHT22;7101;51.600;7.310;2023-03-05T11:51:42;7.40;99.90
14053;DHT22;7101;51.600;7.310;2023-03-05T11:54:15;7.60;99.90
14053;DHT22;7101;51.600;7.310;2023-03-05T11:56:45;7.70;99.90
14053;DHT22;7101;51.600;7.310;2023-03-05T11:59:16;7.60;99.90
14053;DHT22;7101;51.600;7.310;2023-03-05T12:01:46;7.50;99.90
14053;DHT22;7101;51.600;7.310;2023-03-05T12:04:14;7.40;99.90
14053;DHT22;7101;51.600;7.310;2023-03-05T12:06:44;7.40;99.90
14053;DHT22;7101;51.600;7.310;2023-03-05T12:09:17;7.20;99.90
14053;DHT22;7101;51.600;7.310;2023-03-05T12:11:50;7.30;99.90
14053;DHT22;7101;51.600;7.310;2023-03-05T12:14:23;7.40;99.90
14053;DHT22;7101;51.600;7.310;2023-03-05T12:16:56;7.40;99.90
14053;DHT22;7101;51.600;7.310;2023-03-05T12:19:38;7.50;99.90
14053;DHT22;7101;51.600;7.310;2023-03-05T12:22:16;7.60;99.90
14053;DHT22;7101;51.600;7.310;2023-03-05T12:24:44;7.60;99.90
14053;DHT22;7101;51.600;7.310;2023-03-05T12:27:15;7.50;99.90
14053;DHT22;7101;51.600;7.310;2023-03-05T12:29:47;7.30;99.90
14053;DHT22;7101;51.600;7.310;2023-03-05T12:35:32;7.10;99.90
14053;DHT22;7101;51.600;7.310;2023-03-05T12:38:28;7.10;99.90
14053;DHT22;7101;51.600;7.310;2023-03-05T12:44:16;7.40;99.90
14053;DHT22;7101;51.600;7.310;2023-03-05T12:46:44;7.40;99.90
14053;DHT22;7101;51.600;7.310;2023-03-05T12:49:36;7.40;99.90
14053;DHT22;7101;51.600;7.310;2023-03-05T12:52:06;7.30;99.90
14053;DHT22;7101;51.600;7.310;2023-03-05T12:54:41;7.40;99.90
14053;DHT22;7101;51.600;7.310;2023-03-05T12:57:16;7.50;99.90
14053;DHT22;7101;51.600;7.310;2023-03-05T12:59:48;7.70;99.90
14053;DHT22;7101;51.600;7.310;2023-03-05T13:02:22;8.10;99.90
14053;DHT22;7101;51.600;7.310;2023-03-05T13:04:54;8.20;99.90
14053;DHT22;7101;51.600;7.310;2023-03-05T13:07:22;8.10;99.90
14053;DHT22;7101;51.600;7.310;2023-03-05T13:09:53;8.00;99.90
14053;DHT22;7101;51.600;7.310;2023-03-05T13:12:23;8.10;99.90
14053;DHT22;7101;51.600;7.310;2023-03-05T13:14:58;8.20;99.90
14053;DHT22;7101;51.600;7.310;2023-03-05T13:17:28;8.20;99.90
14053;DHT22;7101;51.600;7.310;2023-03-05T13:19:56;8.30;99.90
14053;DHT22;7101;51.600;7.310;2023-03-05T13:22:23;8.30;99.90
14053;DHT22;7101;51.600;7.310;2023-03-05T13:25:12;8.40;99.90
14053;DHT22;7101;51.600;7.310;2023-03-05T13:27:39;8.50;99.90
14053;DHT22;7101;51.600;7.310;2023-03-05T13:30:22;8.40;99.90
14053;DHT22;7101;51.600;7.310;2023-03-05T13:32:50;8.30;99.90
14053;DHT22;7101;51.600;7.310;2023-03-05T13:35:18;8.40;99.90
14053;DHT22;7101;51.600;7.310;2023-03-05T13:37:47;8.60;99.90
14053;DHT22;7101;51.600;7.310;2023-03-05T13:40:19;8.50;99.90
14053;DHT22;7101;51.600;7.310;2023-03-05T13:42:46;8.50;99.90
14053;DHT22;7101;51.600;7.310;2023-03-05T13:45:23;8.30;99.90
14053;DHT22;7101;51.600;7.310;2023-03-05T13:47:53;8.10;99.90
14053;DHT22;7101;51.600;7.310;2023-03-05T13:50:24;8.20;99.90
14053;DHT22;7101;51.600;7.310;2023-03-05T13:52:51;8.00;99.90
14053;DHT22;7101;51.600;7.310;2023-03-05T13:55:19;8.20;99.90
14053;DHT22;7101;51.600;7.310;2023-03-05T13:57:47;8.30;99.90
14053;DHT22;7101;51.600;7.310;2023-03-05T14:00:37;8.40;99.90
14053;DHT22;7101;51.600;7.310;2023-03-05T14:03:09;8.30;99.90
14053;DHT22;7101;51.600;7.310;2023-03-05T14:05:42;8.20;99.90
14053;DHT22;7101;51.600;7.310;2023-03-05T14:08:19;8.20;99.90
14053;DHT22;7101;51.600;7.310;2023-03-05T14:10:46;8.10;99.90
14053;DHT22;7101;51.600;7.310;2023-03-05T14:13:18;8.10;99.90
14053;DHT22;7101;51.600;7.310;2023-03-05T14:16:03;8.00;99.90
14053;DHT22;7101;51.600;7.310;2023-03-05T14:18:31;7.90;99.90
14053;DHT22;7101;51.600;7.310;2023-03-05T14:21:00;7.80;99.90
14053;DHT22;7101;51.600;7.310;2023-03-05T14:23:38;7.70;99.90
14053;DHT22;7101;51.600;7.310;2023-03-05T14:26:25;7.80;99.90
14053;DHT22;7101;51.600;7.310;2023-03-05T14:28:54;7.80;99.90
14053;DHT22;7101;51.600;7.310;2023-03-05T14:31:25;7.80;99.90
14053;DHT22;7101;51.600;7.310;2023-03-05T14:33:52;7.70;99.90
14053;DHT22;7101;51.600;7.310;2023-03-05T14:36:22;7.70;99.90
14053;DHT22;7101;51.600;7.310;2023-03-05T14:38:50;7.90;99.90
14053;DHT22;7101;51.600;7.310;2023-03-05T14:41:35;7.70;99.90
14053;DHT22;7101;51.600;7.310;2023-03-05T14:44:10;7.70;99.90
14053;DHT22;7101;51.600;7.310;2023-03-05T14:46:39;7.80;99.90
14053;DHT22;7101;51.600;7.310;2023-03-05T14:49:06;7.80;99.90
14053;DHT22;7101;51.600;7.310;2023-03-05T14:51:39;7.90;99.90
14053;DHT22;7101;51.600;7.310;2023-03-05T14:54:17;8.00;99.90
14053;DHT22;7101;51.600;7.310;2023-03-05T14:56:44;7.80;99.90
14053;DHT22;7101;51.600;7.310;2023-03-05T14:59:11;7.80;99.90
14053;DHT22;7101;51.600;7.310;2023-03-05T15:01:39;7.80;99.90
14053;DHT22;7101;51.600;7.310;2023-03-05T15:04:06;8.00;99.90
14053;DHT22;7101;51.600;7.310;2023-03-05T15:06:36;7.90;99.90
14053;DHT22;7101;51.600;7.310;2023-03-05T15:09:06;8.00;99.90
14053;DHT22;7101;51.600;7.310;2023-03-05T15:11:33;7.80;99.90
14053;DHT22;7101;51.600;7.310;2023-03-05T15:14:00;7.90;99.90
14053;DHT22;7101;51.600;7.310;2023-03-05T15:16:27;7.80;99.90
14053;DHT22;7101;51.600;7.310;2023-03-05T15:18:55;7.90;99.90
14053;DHT22;7101;51.600;7.310;2023-03-05T15:21:22;7.60;99.90
14053;DHT22;7101;51.600;7.310;2023-03-05T15:23:49;7.70;99.90
14053;DHT22;7101;51.600;7.310;2023-03-05T15:26:16;7.70;99.90
14053;DHT22;7101;51.600;7.310;2023-03-05T15:28:43;7.70;99.90
14053;DHT22;7101;51.600;7.310;2023-03-05T15:31:10;7.80;99.90
14053;DHT22;7101;51.600;7.310;2023-03-05T15:33:37;7.80;99.90
14053;DHT22;7101;51.600;7.310;2023-03-05T15:36:08;7.70;99.90
14053;DHT22;7101;51.600;7.310;2023-03-05T15:38:35;7.50;99.90
14053;DHT22;7101;51.600;7.310;2023-03-05T15:41:03;7.40;99.90
14053;DHT22;7101;51.600;7.310;2023-03-05T15:43:30;7.40;99.90
14053;DHT22;7101;51.600;7.310;2023-03-05T15:45:57;7.40;99.90
14053;DHT22;7101;51.600;7.310;2023-03-05T15:48:24;7.20;99.90
14053;DHT22;7101;51.600;7.310;2023-03-05T15:50:50;7.10;99.90
14053;DHT22;7101;51.600;7.310;2023-03-05T15:53:19;7.20;99.90
14053;DHT22;7101;51.600;7.310;2023-03-05T15:55:46;7.20;99.90
14053;DHT22;7101;51.600;7.310;2023-03-05T15:58:14;7.00;99.90
14053;DHT22;7101;51.600;7.310;2023-03-05T16:00:42;6.90;99.90
14053;DHT22;7101;51.600;7.310;2023-03-05T16:03:10;7.00;99.90
14053;DHT22;7101;51.600;7.310;2023-03-05T16:05:37;6.80;99.90
14053;DHT22;7101;51.600;7.310;2023-03-05T16:08:05;6.80;99.90
14053;DHT22;7101;51.600;7.310;2023-03-05T16:10:34;6.70;99.90
14053;DHT22;7101;51.600;7.310;2023-03-05T16:13:07;6.70;99.90
14053;DHT22;7101;51.600;7.310;2023-03-05T16:15:37;6.60;99.90
14053;DHT22;7101;51.600;7.310;2023-03-05T16:18:08;6.50;99.90
14053;DHT22;7101;51.600;7.310;2023-03-05T16:20:37;6.50;99.90
14053;DHT22;7101;51.600;7.310;2023-03-05T16:23:04;6.40;99.90
14053;DHT22;7101;51.600;7.310;2023-03-05T16:25:33;6.40;99.90
14053;DHT22;7101;51.600;7.310;2023-03-05T16:28:00;6.40;99.90
14053;DHT22;7101;51.600;7.310;2023-03-05T16:30:26;6.40;99.90
14053;DHT22;7101;51.600;7.310;2023-03-05T16:32:53;6.40;99.90
14053;DHT22;7101;51.600;7.310;2023-03-05T16:35:20;6.30;99.90